sensor_id;sensor_type;location;lat;lon;timestamp;P1;durP1;ratioP1;P2;durP2;ratioP2
9900;SDS011;4989;48.772;9.154;2023-05-14T00:02:59;199.47;;;188.20;;
9900;SDS011;4989;48.772;9.154;2023-05-14T00:08:01;210.43;;;195.03;;
9900;SDS011;4989;48.772;9.154;2023-05-14T00:13:03;5.40;;;4.90;;
9900;SDS011;4989;48.772;9.154;2023-05-14T00:18:06;19.50;;;18.43;;
9900;SDS011;4989;48.772;9.154;2023-05-14T00:23:08;44.23;;;41.97;;
9900;SDS011;4989;48.772;9.154;2023-05-14T00:28:11;107.80;;;102.23;;
9900;SDS011;4989;48.772;9.154;2023-05-14T00:33:13;139.93;;;132.43;;
9900;SDS011;4989;48.772;9.154;2023-05-14T00:38:15;177.90;;;168.10;;
9900;SDS011;4989;48.772;9.154;2023-05-14T00:43:20;144.67;;;136.97;;
9900;SDS011;4989;48.772;9.154;2023-05-14T00:48:23;142.37;;;134.80;;
9900;SDS011;4989;48.772;9.154;2023-05-14T00:53:26;129.80;;;123.10;;
9900;SDS011;4989;48.772;9.154;2023-05-14T00:58:28;142.93;;;135.70;;
9900;SDS011;4989;48.772;9.154;2023-05-14T01:03:31;145.77;;;138.10;;
9900;SDS011;4989;48.772;9.154;2023-05-14T01:08:38;147.50;;;139.33;;
9900;SDS011;4989;48.772;9.154;2023-05-14T01:14:10;192.37;;;180.90;;
9900;SDS011;4989;48.772;9.154;2023-05-14T01:24:42;334.20;;;287.43;;
9900;SDS011;4989;48.772;9.154;2023-05-14T01:29:48;349.63;;;309.20;;
9900;SDS011;4989;48.772;9.154;2023-05-14T01:35:02;328.67;;;267.53;;
9900;SDS011;4989;48.772;9.154;2023-05-14T01:40:07;325.43;;;250.00;;
9900;SDS011;4989;48.772;9.154;2023-05-14T01:45:12;340.50;;;286.17;;
9900;SDS011;4989;48.772;9.154;2023-05-14T01:50:17;364.17;;;325.03;;
9900;SDS011;4989;48.772;9.154;2023-05-14T01:55:19;368.40;;;329.13;;
9900;SDS011;4989;48.772;9.154;2023-05-14T02:00:22;392.37;;;351.90;;
9900;SDS011;4989;48.772;9.154;2023-05-14T02:05:28;394.30;;;354.40;;
9900;SDS011;4989;48.772;9.154;2023-05-14T02:10:30;346.50;;;310.40;;
9900;SDS011;4989;48.772;9.154;2023-05-14T02:15:32;335.97;;;279.97;;
9900;SDS011;4989;48.772;9.154;2023-05-14T02:20:34;339.97;;;290.07;;
9900;SDS011;4989;48.772;9.154;2023-05-14T02:25:36;325.33;;;289.07;;
9900;SDS011;4989;48.772;9.154;2023-05-14T02:30:38;340.40;;;307.07;;
9900;SDS011;4989;48.772;9.154;2023-05-14T02:35:41;353.27;;;320.27;;
9900;SDS011;4989;48.772;9.154;2023-05-14T02:40:43;368.40;;;331.53;;
9900;SDS011;4989;48.772;9.154;2023-05-14T02:45:45;392.47;;;357.90;;
9900;SDS011;4989;48.772;9.154;2023-05-14T02:50:50;379.60;;;348.97;;
9900;SDS011;4989;48.772;9.154;2023-05-14T02:55:53;388.67;;;357.03;;
9900;SDS011;4989;48.772;9.154;2023-05-14T03:00:55;380.87;;;350.93;;
9900;SDS011;4989;48.772;9.154;2023-05-14T03:05:58;380.47;;;351.17;;
9900;SDS011;4989;48.772;9.154;2023-05-14T03:11:00;350.10;;;321.10;;
9900;SDS011;4989;48.772;9.154;2023-05-14T03:16:03;323.23;;;296.00;;
9900;SDS011;4989;48.772;9.154;2023-05-14T03:21:05;340.40;;;309.17;;
9900;SDS011;4989;48.772;9.154;2023-05-14T03:26:09;147.07;;;124.53;;
9900;SDS011;4989;48.772;9.154;2023-05-14T03:31:12;5.10;;;4.60;;
9900;SDS011;4989;48.772;9.154;2023-05-14T03:36:14;5.47;;;4.97;;
9900;SDS011;4989;48.772;9.154;2023-05-14T03:41:17;5.60;;;5.10;;
9900;SDS011;4989;48.772;9.154;2023-05-14T03:46:20;6.20;;;5.23;;
9900;SDS011;4989;48.772;9.154;2023-05-14T03:51:23;5.57;;;4.93;;
9900;SDS011;4989;48.772;9.154;2023-05-14T03:56:25;5.30;;;4.80;;
9900;SDS011;4989;48.772;9.154;2023-05-14T04:01:27;6.30;;;5.63;;
9900;SDS011;4989;48.772;9.154;2023-05-14T04:06:31;5.47;;;4.97;;
9900;SDS011;4989;48.772;9.154;2023-05-14T04:11:35;6.97;;;5.53;;
9900;SDS011;4989;48.772;9.154;2023-05-14T04:16:37;5.67;;;5.17;;
9900;SDS011;4989;48.772;9.154;2023-05-14T04:21:40;5.33;;;4.83;;
9900;SDS011;4989;48.772;9.154;2023-05-14T04:26:43;5.93;;;5.33;;
9900;SDS011;4989;48.772;9.154;2023-05-14T04:31:45;5.43;;;4.93;;
9900;SDS011;4989;48.772;9.154;2023-05-14T04:36:47;5.23;;;4.73;;
9900;SDS011;4989;48.772;9.154;2023-05-14T04:41:49;5.10;;;4.60;;
9900;SDS011;4989;48.772;9.154;2023-05-14T04:46:52;5.30;;;4.80;;
9900;SDS011;4989;48.772;9.154;2023-05-14T04:51:54;5.90;;;4.93;;
9900;SDS011;4989;48.772;9.154;2023-05-14T04:56:56;4.67;;;4.20;;
9900;SDS011;4989;48.772;9.154;2023-05-14T05:02:03;4.57;;;3.70;;
9900;SDS011;4989;48.772;9.154;2023-05-14T05:07:05;6.17;;;4.50;;
9900;SDS011;4989;48.772;9.154;2023-05-14T05:12:07;4.87;;;4.37;;
9900;SDS011;4989;48.772;9.154;2023-05-14T05:17:10;5.20;;;4.70;;
9900;SDS011;4989;48.772;9.154;2023-05-14T05:22:13;5.07;;;4.60;;
9900;SDS011;4989;48.772;9.154;2023-05-14T05:27:16;4.73;;;4.27;;
9900;SDS011;4989;48.772;9.154;2023-05-14T05:32:18;5.53;;;4.50;;
9900;SDS011;4989;48.772;9.154;2023-05-14T05:37:20;4.27;;;3.87;;
9900;SDS011;4989;48.772;9.154;2023-05-14T05:42:23;4.90;;;4.37;;
9900;SDS011;4989;48.772;9.154;2023-05-14T05:47:25;5.13;;;4.63;;
9900;SDS011;4989;48.772;9.154;2023-05-14T05:52:27;4.60;;;4.17;;
9900;SDS011;4989;48.772;9.154;2023-05-14T05:57:30;4.87;;;4.33;;
9900;SDS011;4989;48.772;9.154;2023-05-14T06:02:32;4.90;;;4.40;;
9900;SDS011;4989;48.772;9.154;2023-05-14T06:07:34;4.60;;;4.17;;
9900;SDS011;4989;48.772;9.154;2023-05-14T06:12:37;5.67;;;4.90;;
9900;SDS011;4989;48.772;9.154;2023-05-14T06:17:39;3.90;;;3.60;;
9900;SDS011;4989;48.772;9.154;2023-05-14T06:22:42;4.33;;;3.93;;
9900;SDS011;4989;48.772;9.154;2023-05-14T06:27:44;4.40;;;3.97;;
9900;SDS011;4989;48.772;9.154;2023-05-14T06:32:46;5.40;;;4.87;;
9900;SDS011;4989;48.772;9.154;2023-05-14T06:37:48;4.30;;;3.90;;
9900;SDS011;4989;48.772;9.154;2023-05-14T06:42:51;6.17;;;4.83;;
9900;SDS011;4989;48.772;9.154;2023-05-14T06:47:54;5.80;;;5.20;;
9900;SDS011;4989;48.772;9.154;2023-05-14T06:52:56;5.03;;;4.53;;
9900;SDS011;4989;48.772;9.154;2023-05-14T06:57:58;6.87;;;4.60;;
9900;SDS011;4989;48.772;9.154;2023-05-14T07:03:03;3.73;;;3.43;;
9900;SDS011;4989;48.772;9.154;2023-05-14T07:08:06;5.40;;;4.90;;
9900;SDS011;4989;48.772;9.154;2023-05-14T07:13:08;5.73;;;5.13;;
9900;SDS011;4989;48.772;9.154;2023-05-14T07:18:11;5.60;;;5.00;;
9900;SDS011;4989;48.772;9.154;2023-05-14T07:23:13;6.00;;;4.70;;
9900;SDS011;4989;48.772;9.154;2023-05-14T07:28:17;4.43;;;3.77;;
9900;SDS011;4989;48.772;9.154;2023-05-14T07:33:19;4.10;;;3.60;;
9900;SDS011;4989;48.772;9.154;2023-05-14T07:38:22;5.93;;;5.00;;
9900;SDS011;4989;48.772;9.154;2023-05-14T07:43:25;6.17;;;4.93;;
9900;SDS011;4989;48.772;9.154;2023-05-14T07:48:27;5.23;;;4.73;;
9900;SDS011;4989;48.772;9.154;2023-05-14T07:53:29;5.23;;;4.40;;
9900;SDS011;4989;48.772;9.154;2023-05-14T07:58:31;4.70;;;4.30;;
9900;SDS011;4989;48.772;9.154;2023-05-14T08:03:35;5.40;;;4.30;;
9900;SDS011;4989;48.772;9.154;2023-05-14T08:08:37;6.17;;;4.77;;
9900;SDS011;4989;48.772;9.154;2023-05-14T08:13:40;8.10;;;4.73;;
9900;SDS011;4989;48.772;9.154;2023-05-14T08:18:42;5.93;;;5.10;;
9900;SDS011;4989;48.772;9.154;2023-05-14T08:23:45;4.60;;;4.20;;
9900;SDS011;4989;48.772;9.154;2023-05-14T08:28:47;6.67;;;4.30;;
9900;SDS011;4989;48.772;9.154;2023-05-14T08:33:50;6.97;;;5.67;;
9900;SDS011;4989;48.772;9.154;2023-05-14T08:38:52;5.83;;;5.23;;
9900;SDS011;4989;48.772;9.154;2023-05-14T08:43:56;4.97;;;4.47;;
9900;SDS011;4989;48.772;9.154;2023-05-14T08:54:25;4.70;;;4.17;;
9900;SDS011;4989;48.772;9.154;2023-05-14T08:59:29;7.87;;;5.30;;
9900;SDS011;4989;48.772;9.154;2023-05-14T09:04:31;4.40;;;4.00;;
9900;SDS011;4989;48.772;9.154;2023-05-14T09:09:34;8.37;;;6.67;;
9900;SDS011;4989;48.772;9.154;2023-05-14T09:14:37;8.40;;;6.00;;
9900;SDS011;4989;48.772;9.154;2023-05-14T09:19:39;5.60;;;4.90;;
9900;SDS011;4989;48.772;9.154;2023-05-14T09:24:43;5.23;;;4.10;;
9900;SDS011;4989;48.772;9.154;2023-05-14T09:29:46;5.07;;;4.57;;
9900;SDS011;4989;48.772;9.154;2023-05-14T09:34:49;5.93;;;4.93;;
9900;SDS011;4989;48.772;9.154;2023-05-14T09:39:51;5.73;;;5.13;;
9900;SDS011;4989;48.772;9.154;2023-05-14T09:44:53;5.20;;;4.70;;
9900;SDS011;4989;48.772;9.154;2023-05-14T09:49:55;7.00;;;6.30;;
9900;SDS011;4989;48.772;9.154;2023-05-14T09:54:57;7.27;;;5.80;;
9900;SDS011;4989;48.772;9.154;2023-05-14T10:00:01;5.43;;;4.93;;
9900;SDS011;4989;48.772;9.154;2023-05-14T10:05:04;5.27;;;4.77;;
9900;SDS011;4989;48.772;9.154;2023-05-14T10:10:09;6.63;;;5.07;;
9900;SDS011;4989;48.772;9.154;2023-05-14T10:15:22;7.27;;;6.47;;
9900;SDS011;4989;48.772;9.154;2023-05-14T10:20:38;6.40;;;5.57;;
9900;SDS011;4989;48.772;9.154;2023-05-14T10:25:41;4.90;;;4.40;;
9900;SDS011;4989;48.772;9.154;2023-05-14T10:30:44;5.13;;;4.63;;
9900;SDS011;4989;48.772;9.154;2023-05-14T10:41:00;5.60;;;5.10;;
9900;SDS011;4989;48.772;9.154;2023-05-14T10:46:09;5.17;;;4.67;;
9900;SDS011;4989;48.772;9.154;2023-05-14T10:51:14;5.20;;;4.70;;
9900;SDS011;4989;48.772;9.154;2023-05-14T10:56:17;6.30;;;5.70;;
9900;SDS011;4989;48.772;9.154;2023-05-14T11:01:22;5.70;;;5.00;;
9900;SDS011;4989;48.772;9.154;2023-05-14T11:06:24;5.27;;;4.80;;
9900;SDS011;4989;48.772;9.154;2023-05-14T11:11:27;4.40;;;4.00;;
9900;SDS011;4989;48.772;9.154;2023-05-14T11:16:30;5.00;;;4.57;;
9900;SDS011;4989;48.772;9.154;2023-05-14T11:21:32;6.47;;;4.77;;
9900;SDS011;4989;48.772;9.154;2023-05-14T11:26:34;4.60;;;4.20;;
9900;SDS011;4989;48.772;9.154;2023-05-14T11:31:37;5.23;;;4.73;;
9900;SDS011;4989;48.772;9.154;2023-05-14T11:36:39;4.43;;;4.03;;
9900;SDS011;4989;48.772;9.154;2023-05-14T11:41:43;4.20;;;3.90;;
9900;SDS011;4989;48.772;9.154;2023-05-14T11:46:53;4.53;;;4.13;;
9900;SDS011;4989;48.772;9.154;2023-05-14T11:52:03;188.03;;;72.83;;
9900;SDS011;4989;48.772;9.154;2023-05-14T11:57:11;240.83;;;87.40;;
9900;SDS011;4989;48.772;9.154;2023-05-14T12:02:17;383.97;;;141.43;;
9900;SDS011;4989;48.772;9.154;2023-05-14T12:07:20;560.33;;;218.13;;
9900;SDS011;4989;48.772;9.154;2023-05-14T12:12:22;217.43;;;81.57;;
9900;SDS011;4989;48.772;9.154;2023-05-14T12:17:24;27.80;;;10.73;;
9900;SDS011;4989;48.772;9.154;2023-05-14T12:22:27;22.80;;;10.83;;
9900;SDS011;4989;48.772;9.154;2023-05-14T12:27:30;70.47;;;35.10;;
9900;SDS011;4989;48.772;9.154;2023-05-14T12:32:33;40.57;;;17.67;;
9900;SDS011;4989;48.772;9.154;2023-05-14T12:37:36;5.87;;;5.00;;
9900;SDS011;4989;48.772;9.154;2023-05-14T12:42:40;63.63;;;32.83;;
9900;SDS011;4989;48.772;9.154;2023-05-14T12:47:42;4.10;;;3.67;;
9900;SDS011;4989;48.772;9.154;2023-05-14T12:52:45;19.63;;;8.07;;
9900;SDS011;4989;48.772;9.154;2023-05-14T12:57:48;3.57;;;3.27;;
9900;SDS011;4989;48.772;9.154;2023-05-14T13:02:50;4.60;;;3.70;;
9900;SDS011;4989;48.772;9.154;2023-05-14T13:07:52;79.53;;;22.13;;
9900;SDS011;4989;48.772;9.154;2023-05-14T13:12:55;23.87;;;11.50;;
9900;SDS011;4989;48.772;9.154;2023-05-14T13:17:57;5.50;;;4.10;;
9900;SDS011;4989;48.772;9.154;2023-05-14T13:23:00;4.40;;;3.60;;
9900;SDS011;4989;48.772;9.154;2023-05-14T13:28:02;3.23;;;2.90;;
9900;SDS011;4989;48.772;9.154;2023-05-14T13:33:04;4.90;;;3.53;;
9900;SDS011;4989;48.772;9.154;2023-05-14T13:38:07;3.60;;;2.80;;
9900;SDS011;4989;48.772;9.154;2023-05-14T13:43:09;3.80;;;3.50;;
9900;SDS011;4989;48.772;9.154;2023-05-14T13:48:11;15.90;;;6.70;;
9900;SDS011;4989;48.772;9.154;2023-05-14T13:53:14;3.60;;;3.30;;
9900;SDS011;4989;48.772;9.154;2023-05-14T13:58:16;13.40;;;7.13;;
9900;SDS011;4989;48.772;9.154;2023-05-14T14:03:19;14.43;;;7.80;;
9900;SDS011;4989;48.772;9.154;2023-05-14T14:08:21;3.47;;;3.17;;
9900;SDS011;4989;48.772;9.154;2023-05-14T14:13:25;29.70;;;11.50;;
9900;SDS011;4989;48.772;9.154;2023-05-14T14:18:28;14.13;;;10.80;;
9900;SDS011;4989;48.772;9.154;2023-05-14T14:23:30;41.57;;;39.10;;
9900;SDS011;4989;48.772;9.154;2023-05-14T14:28:32;101.17;;;96.47;;
9900;SDS011;4989;48.772;9.154;2023-05-14T14:33:34;227.23;;;216.73;;
9900;SDS011;4989;48.772;9.154;2023-05-14T14:38:36;223.90;;;213.83;;
9900;SDS011;4989;48.772;9.154;2023-05-14T14:43:40;288.13;;;274.73;;
9900;SDS011;4989;48.772;9.154;2023-05-14T14:48:42;319.07;;;303.60;;
9900;SDS011;4989;48.772;9.154;2023-05-14T14:53:45;118.07;;;113.13;;
9900;SDS011;4989;48.772;9.154;2023-05-14T14:58:47;39.33;;;36.47;;
9900;SDS011;4989;48.772;9.154;2023-05-14T15:03:49;39.00;;;32.50;;
9900;SDS011;4989;48.772;9.154;2023-05-14T15:08:52;7.37;;;6.87;;
9900;SDS011;4989;48.772;9.154;2023-05-14T15:13:54;29.80;;;10.20;;
9900;SDS011;4989;48.772;9.154;2023-05-14T15:18:56;9.17;;;4.93;;
9900;SDS011;4989;48.772;9.154;2023-05-14T15:23:58;202.17;;;46.47;;
9900;SDS011;4989;48.772;9.154;2023-05-14T15:29:01;106.50;;;24.97;;
9900;SDS011;4989;48.772;9.154;2023-05-14T15:34:05;8.37;;;4.40;;
9900;SDS011;4989;48.772;9.154;2023-05-14T15:39:07;12.43;;;5.00;;
9900;SDS011;4989;48.772;9.154;2023-05-14T15:44:10;2.90;;;2.70;;
9900;SDS011;4989;48.772;9.154;2023-05-14T15:49:13;3.93;;;3.30;;
9900;SDS011;4989;48.772;9.154;2023-05-14T15:54:16;12.27;;;5.73;;
9900;SDS011;4989;48.772;9.154;2023-05-14T15:59:18;4.03;;;3.63;;
9900;SDS011;4989;48.772;9.154;2023-05-14T16:04:20;3.93;;;3.30;;
9900;SDS011;4989;48.772;9.154;2023-05-14T16:09:46;7.33;;;3.43;;
9900;SDS011;4989;48.772;9.154;2023-05-14T16:14:49;3.53;;;3.23;;
9900;SDS011;4989;48.772;9.154;2023-05-14T16:19:59;3.93;;;3.50;;
9900;SDS011;4989;48.772;9.154;2023-05-14T16:25:14;5.37;;;3.57;;
9900;SDS011;4989;48.772;9.154;2023-05-14T16:30:20;65.00;;;16.37;;
9900;SDS011;4989;48.772;9.154;2023-05-14T16:35:23;31.20;;;10.30;;
9900;SDS011;4989;48.772;9.154;2023-05-14T16:40:33;5.03;;;3.47;;
9900;SDS011;4989;48.772;9.154;2023-05-14T16:45:35;4.13;;;3.50;;
9900;SDS011;4989;48.772;9.154;2023-05-14T16:50:39;17.37;;;6.87;;
9900;SDS011;4989;48.772;9.154;2023-05-14T16:55:41;3.50;;;3.23;;
9900;SDS011;4989;48.772;9.154;2023-05-14T17:00:44;32.37;;;13.07;;
9900;SDS011;4989;48.772;9.154;2023-05-14T17:05:46;16.57;;;6.17;;
9900;SDS011;4989;48.772;9.154;2023-05-14T17:10:49;198.63;;;59.10;;
9900;SDS011;4989;48.772;9.154;2023-05-14T17:15:51;173.63;;;146.80;;
9900;SDS011;4989;48.772;9.154;2023-05-14T17:20:53;94.00;;;36.27;;
9900;SDS011;4989;48.772;9.154;2023-05-14T17:25:56;90.97;;;34.80;;
9900;SDS011;4989;48.772;9.154;2023-05-14T17:30:58;86.13;;;29.33;;
9900;SDS011;4989;48.772;9.154;2023-05-14T17:36:00;41.30;;;17.40;;
9900;SDS011;4989;48.772;9.154;2023-05-14T17:41:03;56.87;;;21.17;;
9900;SDS011;4989;48.772;9.154;2023-05-14T17:46:08;12.70;;;5.90;;
9900;SDS011;4989;48.772;9.154;2023-05-14T17:51:14;21.80;;;8.17;;
9900;SDS011;4989;48.772;9.154;2023-05-14T17:56:51;15.30;;;13.53;;
9900;SDS011;4989;48.772;9.154;2023-05-14T18:01:54;25.87;;;23.10;;
9900;SDS011;4989;48.772;9.154;2023-05-14T18:06:56;46.67;;;44.40;;
9900;SDS011;4989;48.772;9.154;2023-05-14T18:12:04;226.17;;;205.80;;
9900;SDS011;4989;48.772;9.154;2023-05-14T18:17:07;508.27;;;466.73;;
9900;SDS011;4989;48.772;9.154;2023-05-14T18:22:09;590.63;;;540.63;;
9900;SDS011;4989;48.772;9.154;2023-05-14T18:27:12;376.37;;;354.20;;
9900;SDS011;4989;48.772;9.154;2023-05-14T18:32:14;286.57;;;265.00;;
9900;SDS011;4989;48.772;9.154;2023-05-14T18:37:17;187.27;;;177.93;;
9900;SDS011;4989;48.772;9.154;2023-05-14T18:42:19;114.13;;;109.13;;
9900;SDS011;4989;48.772;9.154;2023-05-14T18:47:21;65.87;;;62.87;;
9900;SDS011;4989;48.772;9.154;2023-05-14T18:52:24;34.67;;;32.97;;
9900;SDS011;4989;48.772;9.154;2023-05-14T18:57:27;26.73;;;25.40;;
9900;SDS011;4989;48.772;9.154;2023-05-14T19:02:35;18.30;;;17.40;;
9900;SDS011;4989;48.772;9.154;2023-05-14T19:07:37;12.47;;;11.80;;
9900;SDS011;4989;48.772;9.154;2023-05-14T19:12:41;9.77;;;9.07;;
9900;SDS011;4989;48.772;9.154;2023-05-14T19:17:43;6.60;;;6.10;;
9900;SDS011;4989;48.772;9.154;2023-05-14T19:22:46;5.93;;;5.53;;
9900;SDS011;4989;48.772;9.154;2023-05-14T19:27:48;7.90;;;7.50;;
9900;SDS011;4989;48.772;9.154;2023-05-14T19:32:51;11.77;;;11.13;;
9900;SDS011;4989;48.772;9.154;2023-05-14T19:37:53;13.30;;;12.30;;
9900;SDS011;4989;48.772;9.154;2023-05-14T19:42:56;12.93;;;12.27;;
9900;SDS011;4989;48.772;9.154;2023-05-14T19:47:58;24.97;;;23.70;;
9900;SDS011;4989;48.772;9.154;2023-05-14T19:53:01;505.93;;;476.73;;
9900;SDS011;4989;48.772;9.154;2023-05-14T19:58:04;636.73;;;594.90;;
9900;SDS011;4989;48.772;9.154;2023-05-14T20:03:06;600.37;;;559.50;;
9900;SDS011;4989;48.772;9.154;2023-05-14T20:08:10;598.83;;;555.20;;
9900;SDS011;4989;48.772;9.154;2023-05-14T20:13:13;607.93;;;562.97;;
9900;SDS011;4989;48.772;9.154;2023-05-14T20:18:15;557.10;;;522.40;;
9900;SDS011;4989;48.772;9.154;2023-05-14T20:23:18;481.57;;;453.77;;
9900;SDS011;4989;48.772;9.154;2023-05-14T20:28:21;406.87;;;384.67;;
9900;SDS011;4989;48.772;9.154;2023-05-14T20:33:23;352.20;;;333.80;;
9900;SDS011;4989;48.772;9.154;2023-05-14T20:38:26;336.83;;;319.50;;
9900;SDS011;4989;48.772;9.154;2023-05-14T20:43:29;355.33;;;336.70;;
9900;SDS011;4989;48.772;9.154;2023-05-14T20:48:32;302.40;;;287.03;;
9900;SDS011;4989;48.772;9.154;2023-05-14T20:53:34;286.70;;;272.93;;
9900;SDS011;4989;48.772;9.154;2023-05-14T20:58:39;283.47;;;269.87;;
9900;SDS011;4989;48.772;9.154;2023-05-14T21:03:41;316.63;;;300.53;;
9900;SDS011;4989;48.772;9.154;2023-05-14T21:08:44;334.97;;;317.90;;
9900;SDS011;4989;48.772;9.154;2023-05-14T21:13:47;325.00;;;308.27;;
9900;SDS011;4989;48.772;9.154;2023-05-14T21:18:49;348.40;;;329.57;;
9900;SDS011;4989;48.772;9.154;2023-05-14T21:23:51;369.43;;;349.43;;
9900;SDS011;4989;48.772;9.154;2023-05-14T21:28:54;492.83;;;463.67;;
9900;SDS011;4989;48.772;9.154;2023-05-14T21:33:56;568.07;;;532.97;;
9900;SDS011;4989;48.772;9.154;2023-05-14T21:38:58;613.60;;;572.60;;
9900;SDS011;4989;48.772;9.154;2023-05-14T21:44:01;300.97;;;285.13;;
9900;SDS011;4989;48.772;9.154;2023-05-14T21:49:03;233.30;;;221.77;;
9900;SDS011;4989;48.772;9.154;2023-05-14T21:54:05;198.50;;;189.23;;
9900;SDS011;4989;48.772;9.154;2023-05-14T21:59:08;161.27;;;153.77;;
9900;SDS011;4989;48.772;9.154;2023-05-14T22:04:11;152.83;;;145.83;;
9900;SDS011;4989;48.772;9.154;2023-05-14T22:09:13;163.70;;;156.20;;
9900;SDS011;4989;48.772;9.154;2023-05-14T22:14:16;131.30;;;125.23;;
9900;SDS011;4989;48.772;9.154;2023-05-14T22:19:18;237.47;;;225.33;;
9900;SDS011;4989;48.772;9.154;2023-05-14T22:24:20;228.73;;;217.10;;
9900;SDS011;4989;48.772;9.154;2023-05-14T22:29:22;178.67;;;169.77;;
9900;SDS011;4989;48.772;9.154;2023-05-14T22:34:25;174.83;;;166.07;;
9900;SDS011;4989;48.772;9.154;2023-05-14T22:39:27;203.37;;;193.13;;
9900;SDS011;4989;48.772;9.154;2023-05-14T22:44:30;213.07;;;201.97;;
9900;SDS011;4989;48.772;9.154;2023-05-14T22:49:32;211.37;;;200.57;;
9900;SDS011;4989;48.772;9.154;2023-05-14T22:54:34;201.43;;;190.63;;
9900;SDS011;4989;48.772;9.154;2023-05-14T22:59:37;166.30;;;158.23;;
9900;SDS011;4989;48.772;9.154;2023-05-14T23:04:40;172.97;;;164.70;;
9900;SDS011;4989;48.772;9.154;2023-05-14T23:09:42;176.23;;;167.77;;
9900;SDS011;4989;48.772;9.154;2023-05-14T23:14:44;190.23;;;181.07;;
9900;SDS011;4989;48.772;9.154;2023-05-14T23:19:46;206.37;;;196.10;;
9900;SDS011;4989;48.772;9.154;2023-05-14T23:24:49;296.00;;;279.63;;
9900;SDS011;4989;48.772;9.154;2023-05-14T23:29:51;261.00;;;246.80;;
9900;SDS011;4989;48.772;9.154;2023-05-14T23:34:53;249.93;;;236.67;;
9900;SDS011;4989;48.772;9.154;2023-05-14T23:39:56;202.00;;;191.60;;
9900;SDS011;4989;48.772;9.154;2023-05-14T23:44:58;171.40;;;162.73;;
9900;SDS011;4989;48.772;9.154;2023-05-14T23:50:00;140.77;;;134.00;;
9900;SDS011;4989;48.772;9.154;2023-05-14T23:55:03;133.13;;;127.10;;
